Aviation Digital Data Service (ADDS)

Output produced by METARs form (1836 UTC 01 September 2014)
found at http://aviationweather.gov/adds/metars/
 
KBDL 011727Z 0118/0224 17005KT P6SM VCTS BKN050CB 
     FM012000 22005KT P6SM BKN050 
     FM021200 VRB03KT P6SM SCT008 
     FM021500 21005KT P6SM FEW250